sensor_id;sensor_type;location;lat;lon;timestamp;P1;durP1;ratioP1;P2;durP2;ratioP2
25213;SDS011;13160;51.834;4.706;2022-12-11T00:02:02;81.28;;;45.90;;
25213;SDS011;13160;51.834;4.706;2022-12-11T00:04:31;82.18;;;45.15;;
25213;SDS011;13160;51.834;4.706;2022-12-11T00:06:59;83.70;;;47.47;;
25213;SDS011;13160;51.834;4.706;2022-12-11T00:09:28;83.78;;;47.05;;
25213;SDS011;13160;51.834;4.706;2022-12-11T00:11:57;82.78;;;47.13;;
25213;SDS011;13160;51.834;4.706;2022-12-11T00:14:29;82.55;;;47.13;;
25213;SDS011;13160;51.834;4.706;2022-12-11T00:16:57;85.65;;;47.47;;
25213;SDS011;13160;51.834;4.706;2022-12-11T00:19:26;84.32;;;46.55;;
25213;SDS011;13160;51.834;4.706;2022-12-11T00:21:54;85.20;;;46.75;;
25213;SDS011;13160;51.834;4.706;2022-12-11T00:24:23;81.65;;;46.78;;
25213;SDS011;13160;51.834;4.706;2022-12-11T00:26:51;77.72;;;46.13;;
25213;SDS011;13160;51.834;4.706;2022-12-11T00:29:19;76.07;;;44.63;;
25213;SDS011;13160;51.834;4.706;2022-12-11T00:31:49;82.20;;;46.90;;
25213;SDS011;13160;51.834;4.706;2022-12-11T00:34:18;78.85;;;45.72;;
25213;SDS011;13160;51.834;4.706;2022-12-11T00:36:46;78.18;;;44.40;;
25213;SDS011;13160;51.834;4.706;2022-12-11T00:39:15;73.65;;;42.90;;
25213;SDS011;13160;51.834;4.706;2022-12-11T00:41:43;73.88;;;43.05;;
25213;SDS011;13160;51.834;4.706;2022-12-11T00:44:15;68.00;;;41.03;;
25213;SDS011;13160;51.834;4.706;2022-12-11T00:46:43;69.30;;;41.70;;
25213;SDS011;13160;51.834;4.706;2022-12-11T00:49:25;67.00;;;40.80;;
25213;SDS011;13160;51.834;4.706;2022-12-11T00:51:54;72.60;;;40.28;;
25213;SDS011;13160;51.834;4.706;2022-12-11T00:54:22;64.88;;;39.90;;
25213;SDS011;13160;51.834;4.706;2022-12-11T00:56:51;61.80;;;39.10;;
25213;SDS011;13160;51.834;4.706;2022-12-11T00:59:21;66.50;;;38.85;;
25213;SDS011;13160;51.834;4.706;2022-12-11T01:01:50;59.83;;;36.33;;
25213;SDS011;13160;51.834;4.706;2022-12-11T01:04:20;62.42;;;37.28;;
25213;SDS011;13160;51.834;4.706;2022-12-11T01:06:49;56.97;;;36.78;;
25213;SDS011;13160;51.834;4.706;2022-12-11T01:09:17;57.45;;;34.95;;
25213;SDS011;13160;51.834;4.706;2022-12-11T01:12:03;53.70;;;34.50;;
25213;SDS011;13160;51.834;4.706;2022-12-11T01:14:32;61.03;;;35.40;;
25213;SDS011;13160;51.834;4.706;2022-12-11T01:17:00;59.60;;;35.60;;
25213;SDS011;13160;51.834;4.706;2022-12-11T01:19:30;61.67;;;37.38;;
25213;SDS011;13160;51.834;4.706;2022-12-11T01:21:59;62.60;;;37.53;;
25213;SDS011;13160;51.834;4.706;2022-12-11T01:24:27;57.63;;;36.78;;
25213;SDS011;13160;51.834;4.706;2022-12-11T01:26:56;62.95;;;37.97;;
25213;SDS011;13160;51.834;4.706;2022-12-11T01:29:24;63.97;;;38.70;;
25213;SDS011;13160;51.834;4.706;2022-12-11T01:31:52;55.47;;;36.42;;
25213;SDS011;13160;51.834;4.706;2022-12-11T01:34:21;60.10;;;36.17;;
25213;SDS011;13160;51.834;4.706;2022-12-11T01:36:51;58.45;;;35.85;;
25213;SDS011;13160;51.834;4.706;2022-12-11T01:39:20;60.53;;;35.28;;
25213;SDS011;13160;51.834;4.706;2022-12-11T01:41:48;60.50;;;36.38;;
25213;SDS011;13160;51.834;4.706;2022-12-11T01:47:54;54.67;;;34.03;;
25213;SDS011;13160;51.834;4.706;2022-12-11T01:50:29;60.85;;;34.72;;
25213;SDS011;13160;51.834;4.706;2022-12-11T01:53:03;55.92;;;33.92;;
25213;SDS011;13160;51.834;4.706;2022-12-11T01:55:35;55.33;;;32.83;;
25213;SDS011;13160;51.834;4.706;2022-12-11T01:58:06;53.30;;;33.28;;
25213;SDS011;13160;51.834;4.706;2022-12-11T02:00:36;49.65;;;32.10;;
25213;SDS011;13160;51.834;4.706;2022-12-11T02:03:05;48.22;;;30.70;;
25213;SDS011;13160;51.834;4.706;2022-12-11T02:05:34;50.92;;;31.17;;
25213;SDS011;13160;51.834;4.706;2022-12-11T02:08:05;46.80;;;28.90;;
25213;SDS011;13160;51.834;4.706;2022-12-11T02:10:40;46.85;;;29.52;;
25213;SDS011;13160;51.834;4.706;2022-12-11T02:13:18;48.38;;;29.40;;
25213;SDS011;13160;51.834;4.706;2022-12-11T02:15:55;46.92;;;29.63;;
25213;SDS011;13160;51.834;4.706;2022-12-11T02:18:30;45.80;;;28.00;;
25213;SDS011;13160;51.834;4.706;2022-12-11T02:21:07;45.90;;;29.10;;
25213;SDS011;13160;51.834;4.706;2022-12-11T02:23:56;46.40;;;28.88;;
25213;SDS011;13160;51.834;4.706;2022-12-11T02:29:33;51.03;;;30.88;;
25213;SDS011;13160;51.834;4.706;2022-12-11T02:32:05;48.85;;;31.30;;
25213;SDS011;13160;51.834;4.706;2022-12-11T02:34:39;53.05;;;31.17;;
25213;SDS011;13160;51.834;4.706;2022-12-11T02:37:13;51.92;;;31.58;;
25213;SDS011;13160;51.834;4.706;2022-12-11T02:39:46;52.60;;;32.17;;
25213;SDS011;13160;51.834;4.706;2022-12-11T02:42:18;50.70;;;32.33;;
25213;SDS011;13160;51.834;4.706;2022-12-11T02:44:51;52.30;;;31.27;;
25213;SDS011;13160;51.834;4.706;2022-12-11T02:47:23;49.15;;;31.67;;
25213;SDS011;13160;51.834;4.706;2022-12-11T02:49:53;53.80;;;31.50;;
25213;SDS011;13160;51.834;4.706;2022-12-11T02:52:24;52.55;;;32.85;;
25213;SDS011;13160;51.834;4.706;2022-12-11T02:54:55;46.80;;;31.23;;
25213;SDS011;13160;51.834;4.706;2022-12-11T02:57:26;54.03;;;32.53;;
25213;SDS011;13160;51.834;4.706;2022-12-11T03:00:03;58.53;;;32.38;;
25213;SDS011;13160;51.834;4.706;2022-12-11T03:02:35;51.95;;;32.63;;
25213;SDS011;13160;51.834;4.706;2022-12-11T03:05:04;50.63;;;31.13;;
25213;SDS011;13160;51.834;4.706;2022-12-11T03:07:35;45.03;;;29.05;;
25213;SDS011;13160;51.834;4.706;2022-12-11T03:10:09;49.72;;;31.70;;
25213;SDS011;13160;51.834;4.706;2022-12-11T03:12:41;52.03;;;31.23;;
25213;SDS011;13160;51.834;4.706;2022-12-11T03:15:21;48.25;;;31.10;;
25213;SDS011;13160;51.834;4.706;2022-12-11T03:17:58;46.13;;;30.45;;
25213;SDS011;13160;51.834;4.706;2022-12-11T03:20:34;44.60;;;29.80;;
25213;SDS011;13160;51.834;4.706;2022-12-11T03:23:19;48.22;;;30.58;;
25213;SDS011;13160;51.834;4.706;2022-12-11T03:25:53;47.53;;;29.90;;
25213;SDS011;13160;51.834;4.706;2022-12-11T03:28:24;47.00;;;28.98;;
25213;SDS011;13160;51.834;4.706;2022-12-11T03:30:59;45.28;;;30.13;;
25213;SDS011;13160;51.834;4.706;2022-12-11T03:33:34;44.60;;;28.70;;
25213;SDS011;13160;51.834;4.706;2022-12-11T03:36:07;46.17;;;28.23;;
25213;SDS011;13160;51.834;4.706;2022-12-11T03:38:40;40.47;;;27.38;;
25213;SDS011;13160;51.834;4.706;2022-12-11T03:41:15;45.92;;;27.33;;
25213;SDS011;13160;51.834;4.706;2022-12-11T03:43:47;43.83;;;28.00;;
25213;SDS011;13160;51.834;4.706;2022-12-11T03:46:18;41.88;;;27.42;;
25213;SDS011;13160;51.834;4.706;2022-12-11T03:48:51;40.08;;;27.02;;
25213;SDS011;13160;51.834;4.706;2022-12-11T03:51:22;40.58;;;25.85;;
25213;SDS011;13160;51.834;4.706;2022-12-11T03:53:52;39.45;;;26.05;;
25213;SDS011;13160;51.834;4.706;2022-12-11T03:56:22;39.97;;;24.75;;
25213;SDS011;13160;51.834;4.706;2022-12-11T03:58:53;41.03;;;26.73;;
25213;SDS011;13160;51.834;4.706;2022-12-11T04:01:23;37.28;;;24.85;;
25213;SDS011;13160;51.834;4.706;2022-12-11T04:03:52;41.30;;;25.33;;
25213;SDS011;13160;51.834;4.706;2022-12-11T04:06:20;37.95;;;25.55;;
25213;SDS011;13160;51.834;4.706;2022-12-11T04:08:49;36.97;;;24.85;;
25213;SDS011;13160;51.834;4.706;2022-12-11T04:11:17;39.53;;;25.55;;
25213;SDS011;13160;51.834;4.706;2022-12-11T04:14:01;37.90;;;23.35;;
25213;SDS011;13160;51.834;4.706;2022-12-11T04:16:50;37.20;;;23.52;;
25213;SDS011;13160;51.834;4.706;2022-12-11T04:19:21;38.33;;;22.58;;
25213;SDS011;13160;51.834;4.706;2022-12-11T04:22:09;34.65;;;22.40;;
25213;SDS011;13160;51.834;4.706;2022-12-11T04:24:54;33.15;;;22.05;;
25213;SDS011;13160;51.834;4.706;2022-12-11T04:27:23;35.97;;;22.42;;
25213;SDS011;13160;51.834;4.706;2022-12-11T04:30:10;31.98;;;21.70;;
25213;SDS011;13160;51.834;4.706;2022-12-11T04:32:45;34.08;;;22.48;;
25213;SDS011;13160;51.834;4.706;2022-12-11T04:35:14;37.60;;;22.50;;
25213;SDS011;13160;51.834;4.706;2022-12-11T04:37:43;33.53;;;21.35;;
25213;SDS011;13160;51.834;4.706;2022-12-11T04:40:12;34.33;;;22.25;;
25213;SDS011;13160;51.834;4.706;2022-12-11T04:42:43;33.50;;;22.23;;
25213;SDS011;13160;51.834;4.706;2022-12-11T04:45:14;31.30;;;20.15;;
25213;SDS011;13160;51.834;4.706;2022-12-11T04:47:43;29.50;;;19.63;;
25213;SDS011;13160;51.834;4.706;2022-12-11T04:50:15;31.55;;;20.65;;
25213;SDS011;13160;51.834;4.706;2022-12-11T04:52:44;32.50;;;21.55;;
25213;SDS011;13160;51.834;4.706;2022-12-11T04:55:12;34.30;;;22.27;;
25213;SDS011;13160;51.834;4.706;2022-12-11T04:57:41;32.35;;;22.23;;
25213;SDS011;13160;51.834;4.706;2022-12-11T05:00:10;37.03;;;24.15;;
25213;SDS011;13160;51.834;4.706;2022-12-11T05:02:41;37.15;;;24.77;;
25213;SDS011;13160;51.834;4.706;2022-12-11T05:05:09;39.45;;;26.05;;
25213;SDS011;13160;51.834;4.706;2022-12-11T05:07:40;41.08;;;25.50;;
25213;SDS011;13160;51.834;4.706;2022-12-11T05:10:09;38.28;;;26.00;;
25213;SDS011;13160;51.834;4.706;2022-12-11T05:12:37;42.22;;;26.83;;
25213;SDS011;13160;51.834;4.706;2022-12-11T05:15:06;41.97;;;28.02;;
25213;SDS011;13160;51.834;4.706;2022-12-11T05:17:36;45.78;;;30.33;;
25213;SDS011;13160;51.834;4.706;2022-12-11T05:20:05;44.42;;;29.17;;
25213;SDS011;13160;51.834;4.706;2022-12-11T05:22:34;42.13;;;28.30;;
25213;SDS011;13160;51.834;4.706;2022-12-11T05:25:05;46.33;;;28.52;;
25213;SDS011;13160;51.834;4.706;2022-12-11T05:27:35;44.30;;;28.10;;
25213;SDS011;13160;51.834;4.706;2022-12-11T05:30:04;48.40;;;29.05;;
25213;SDS011;13160;51.834;4.706;2022-12-11T05:32:35;47.72;;;30.30;;
25213;SDS011;13160;51.834;4.706;2022-12-11T05:35:04;45.53;;;29.17;;
25213;SDS011;13160;51.834;4.706;2022-12-11T05:37:33;46.63;;;29.17;;
25213;SDS011;13160;51.834;4.706;2022-12-11T05:40:02;50.65;;;32.00;;
25213;SDS011;13160;51.834;4.706;2022-12-11T05:42:34;52.83;;;32.03;;
25213;SDS011;13160;51.834;4.706;2022-12-11T05:45:03;52.58;;;30.98;;
25213;SDS011;13160;51.834;4.706;2022-12-11T05:47:33;52.13;;;32.03;;
25213;SDS011;13160;51.834;4.706;2022-12-11T05:50:01;49.05;;;30.90;;
25213;SDS011;13160;51.834;4.706;2022-12-11T05:52:30;51.30;;;31.10;;
25213;SDS011;13160;51.834;4.706;2022-12-11T05:54:59;48.15;;;30.73;;
25213;SDS011;13160;51.834;4.706;2022-12-11T05:57:29;50.53;;;29.67;;
25213;SDS011;13160;51.834;4.706;2022-12-11T05:59:57;48.20;;;29.95;;
25213;SDS011;13160;51.834;4.706;2022-12-11T06:02:25;49.05;;;29.73;;
25213;SDS011;13160;51.834;4.706;2022-12-11T06:04:54;48.53;;;29.92;;
25213;SDS011;13160;51.834;4.706;2022-12-11T06:07:22;43.03;;;26.88;;
25213;SDS011;13160;51.834;4.706;2022-12-11T06:09:51;44.40;;;27.10;;
25213;SDS011;13160;51.834;4.706;2022-12-11T06:12:19;46.83;;;29.13;;
25213;SDS011;13160;51.834;4.706;2022-12-11T06:14:49;48.20;;;28.08;;
25213;SDS011;13160;51.834;4.706;2022-12-11T06:17:17;47.25;;;29.33;;
25213;SDS011;13160;51.834;4.706;2022-12-11T06:19:46;46.33;;;28.35;;
25213;SDS011;13160;51.834;4.706;2022-12-11T06:22:14;44.85;;;28.42;;
25213;SDS011;13160;51.834;4.706;2022-12-11T06:24:42;43.92;;;28.15;;
25213;SDS011;13160;51.834;4.706;2022-12-11T06:27:10;47.20;;;29.35;;
25213;SDS011;13160;51.834;4.706;2022-12-11T06:29:39;46.20;;;29.10;;
25213;SDS011;13160;51.834;4.706;2022-12-11T06:32:09;45.13;;;27.90;;
25213;SDS011;13160;51.834;4.706;2022-12-11T06:34:37;44.40;;;28.77;;
25213;SDS011;13160;51.834;4.706;2022-12-11T06:37:05;45.45;;;29.20;;
25213;SDS011;13160;51.834;4.706;2022-12-11T06:39:34;43.20;;;27.77;;
25213;SDS011;13160;51.834;4.706;2022-12-11T06:42:05;49.97;;;30.92;;
25213;SDS011;13160;51.834;4.706;2022-12-11T06:44:33;48.35;;;30.80;;
25213;SDS011;13160;51.834;4.706;2022-12-11T06:47:02;48.30;;;31.77;;
25213;SDS011;13160;51.834;4.706;2022-12-11T06:49:32;53.72;;;33.20;;
25213;SDS011;13160;51.834;4.706;2022-12-11T06:52:00;51.63;;;32.60;;
25213;SDS011;13160;51.834;4.706;2022-12-11T06:54:28;51.28;;;33.08;;
25213;SDS011;13160;51.834;4.706;2022-12-11T06:56:57;52.88;;;33.45;;
25213;SDS011;13160;51.834;4.706;2022-12-11T06:59:25;54.40;;;33.40;;
25213;SDS011;13160;51.834;4.706;2022-12-11T07:01:53;50.97;;;32.50;;
25213;SDS011;13160;51.834;4.706;2022-12-11T07:04:22;48.45;;;32.38;;
25213;SDS011;13160;51.834;4.706;2022-12-11T07:06:54;45.92;;;30.33;;
25213;SDS011;13160;51.834;4.706;2022-12-11T07:09:22;47.58;;;30.92;;
25213;SDS011;13160;51.834;4.706;2022-12-11T07:11:51;50.70;;;32.03;;
25213;SDS011;13160;51.834;4.706;2022-12-11T07:14:20;45.33;;;29.98;;
25213;SDS011;13160;51.834;4.706;2022-12-11T07:16:48;46.30;;;29.20;;
25213;SDS011;13160;51.834;4.706;2022-12-11T07:19:17;48.50;;;30.65;;
25213;SDS011;13160;51.834;4.706;2022-12-11T07:21:45;44.47;;;31.08;;
25213;SDS011;13160;51.834;4.706;2022-12-11T07:24:15;48.08;;;31.25;;
25213;SDS011;13160;51.834;4.706;2022-12-11T07:26:44;51.50;;;32.30;;
25213;SDS011;13160;51.834;4.706;2022-12-11T07:29:12;44.83;;;30.60;;
25213;SDS011;13160;51.834;4.706;2022-12-11T07:31:52;48.75;;;31.70;;
25213;SDS011;13160;51.834;4.706;2022-12-11T07:34:20;45.17;;;30.42;;
25213;SDS011;13160;51.834;4.706;2022-12-11T07:36:48;46.00;;;29.98;;
25213;SDS011;13160;51.834;4.706;2022-12-11T07:39:21;47.83;;;31.92;;
25213;SDS011;13160;51.834;4.706;2022-12-11T07:41:50;48.15;;;31.45;;
25213;SDS011;13160;51.834;4.706;2022-12-11T07:44:27;49.53;;;31.17;;
25213;SDS011;13160;51.834;4.706;2022-12-11T07:46:58;47.45;;;31.05;;
25213;SDS011;13160;51.834;4.706;2022-12-11T07:49:27;47.70;;;29.67;;
25213;SDS011;13160;51.834;4.706;2022-12-11T07:52:06;50.22;;;30.10;;
25213;SDS011;13160;51.834;4.706;2022-12-11T07:54:36;48.70;;;31.02;;
25213;SDS011;13160;51.834;4.706;2022-12-11T07:57:05;49.88;;;31.10;;
25213;SDS011;13160;51.834;4.706;2022-12-11T07:59:39;54.50;;;32.75;;
25213;SDS011;13160;51.834;4.706;2022-12-11T08:02:08;47.78;;;29.55;;
25213;SDS011;13160;51.834;4.706;2022-12-11T08:04:37;49.88;;;30.98;;
25213;SDS011;13160;51.834;4.706;2022-12-11T08:07:06;47.08;;;31.73;;
25213;SDS011;13160;51.834;4.706;2022-12-11T08:09:34;50.28;;;30.52;;
25213;SDS011;13160;51.834;4.706;2022-12-11T08:12:04;47.97;;;30.35;;
25213;SDS011;13160;51.834;4.706;2022-12-11T08:14:33;48.00;;;30.30;;
25213;SDS011;13160;51.834;4.706;2022-12-11T08:17:01;48.10;;;29.77;;
25213;SDS011;13160;51.834;4.706;2022-12-11T08:19:30;45.83;;;29.25;;
25213;SDS011;13160;51.834;4.706;2022-12-11T08:21:59;45.50;;;29.25;;
25213;SDS011;13160;51.834;4.706;2022-12-11T08:24:27;45.45;;;29.67;;
25213;SDS011;13160;51.834;4.706;2022-12-11T08:26:57;47.03;;;30.05;;
25213;SDS011;13160;51.834;4.706;2022-12-11T08:29:26;48.83;;;29.83;;
25213;SDS011;13160;51.834;4.706;2022-12-11T08:31:54;45.17;;;28.38;;
25213;SDS011;13160;51.834;4.706;2022-12-11T08:34:22;48.33;;;30.35;;
25213;SDS011;13160;51.834;4.706;2022-12-11T08:36:51;48.13;;;31.40;;
25213;SDS011;13160;51.834;4.706;2022-12-11T08:39:19;49.55;;;30.45;;
25213;SDS011;13160;51.834;4.706;2022-12-11T08:41:48;48.00;;;29.30;;
25213;SDS011;13160;51.834;4.706;2022-12-11T08:44:18;43.92;;;29.13;;
25213;SDS011;13160;51.834;4.706;2022-12-11T08:46:46;45.90;;;29.90;;
25213;SDS011;13160;51.834;4.706;2022-12-11T08:49:15;46.55;;;29.50;;
25213;SDS011;13160;51.834;4.706;2022-12-11T08:51:44;45.25;;;28.20;;
25213;SDS011;13160;51.834;4.706;2022-12-11T08:54:12;38.97;;;27.08;;
25213;SDS011;13160;51.834;4.706;2022-12-11T08:56:40;48.70;;;29.65;;
25213;SDS011;13160;51.834;4.706;2022-12-11T08:59:09;46.72;;;28.52;;
25213;SDS011;13160;51.834;4.706;2022-12-11T09:01:39;45.45;;;27.92;;
25213;SDS011;13160;51.834;4.706;2022-12-11T09:04:07;46.22;;;28.52;;
25213;SDS011;13160;51.834;4.706;2022-12-11T09:06:35;43.50;;;27.73;;
25213;SDS011;13160;51.834;4.706;2022-12-11T09:09:04;46.50;;;27.58;;
25213;SDS011;13160;51.834;4.706;2022-12-11T09:11:33;45.60;;;27.08;;
25213;SDS011;13160;51.834;4.706;2022-12-11T09:14:04;44.08;;;27.42;;
25213;SDS011;13160;51.834;4.706;2022-12-11T09:16:36;45.00;;;26.58;;
25213;SDS011;13160;51.834;4.706;2022-12-11T09:19:07;42.33;;;26.42;;
25213;SDS011;13160;51.834;4.706;2022-12-11T09:21:40;46.60;;;27.45;;
25213;SDS011;13160;51.834;4.706;2022-12-11T09:24:09;46.92;;;28.00;;
25213;SDS011;13160;51.834;4.706;2022-12-11T09:26:39;44.72;;;27.25;;
25213;SDS011;13160;51.834;4.706;2022-12-11T09:29:08;44.97;;;27.17;;
25213;SDS011;13160;51.834;4.706;2022-12-11T09:31:39;48.30;;;27.83;;
25213;SDS011;13160;51.834;4.706;2022-12-11T09:34:10;46.97;;;28.35;;
25213;SDS011;13160;51.834;4.706;2022-12-11T09:36:40;44.47;;;27.55;;
25213;SDS011;13160;51.834;4.706;2022-12-11T09:39:10;48.88;;;29.17;;
25213;SDS011;13160;51.834;4.706;2022-12-11T09:41:45;47.85;;;28.30;;
25213;SDS011;13160;51.834;4.706;2022-12-11T09:44:23;50.55;;;30.52;;
25213;SDS011;13160;51.834;4.706;2022-12-11T09:47:12;49.13;;;29.38;;
25213;SDS011;13160;51.834;4.706;2022-12-11T09:49:55;49.03;;;29.73;;
25213;SDS011;13160;51.834;4.706;2022-12-11T09:52:32;50.88;;;29.58;;
25213;SDS011;13160;51.834;4.706;2022-12-11T09:55:08;53.50;;;30.58;;
25213;SDS011;13160;51.834;4.706;2022-12-11T09:57:45;52.40;;;30.23;;
25213;SDS011;13160;51.834;4.706;2022-12-11T10:00:24;51.28;;;29.08;;
25213;SDS011;13160;51.834;4.706;2022-12-11T10:03:04;51.95;;;29.77;;
25213;SDS011;13160;51.834;4.706;2022-12-11T10:06:06;51.75;;;30.90;;
25213;SDS011;13160;51.834;4.706;2022-12-11T10:08:44;59.20;;;32.00;;
25213;SDS011;13160;51.834;4.706;2022-12-11T10:11:34;60.50;;;31.73;;
25213;SDS011;13160;51.834;4.706;2022-12-11T10:14:24;56.90;;;31.70;;
25213;SDS011;13160;51.834;4.706;2022-12-11T10:17:05;61.45;;;33.30;;
25213;SDS011;13160;51.834;4.706;2022-12-11T10:19:41;58.92;;;32.55;;
25213;SDS011;13160;51.834;4.706;2022-12-11T10:22:11;58.92;;;34.25;;
25213;SDS011;13160;51.834;4.706;2022-12-11T10:24:50;57.85;;;31.17;;
25213;SDS011;13160;51.834;4.706;2022-12-11T10:27:37;60.28;;;32.50;;
25213;SDS011;13160;51.834;4.706;2022-12-11T10:30:12;58.88;;;32.85;;
25213;SDS011;13160;51.834;4.706;2022-12-11T10:32:47;68.18;;;33.83;;
25213;SDS011;13160;51.834;4.706;2022-12-11T10:35:25;59.58;;;33.30;;
25213;SDS011;13160;51.834;4.706;2022-12-11T10:38:01;61.92;;;33.33;;
25213;SDS011;13160;51.834;4.706;2022-12-11T10:40:40;63.47;;;32.83;;
25213;SDS011;13160;51.834;4.706;2022-12-11T10:43:12;61.42;;;33.50;;
25213;SDS011;13160;51.834;4.706;2022-12-11T10:45:48;60.65;;;33.60;;
25213;SDS011;13160;51.834;4.706;2022-12-11T10:48:19;72.53;;;34.78;;
25213;SDS011;13160;51.834;4.706;2022-12-11T10:50:57;61.92;;;33.40;;
25213;SDS011;13160;51.834;4.706;2022-12-11T10:53:28;64.82;;;34.58;;
25213;SDS011;13160;51.834;4.706;2022-12-11T10:55:58;60.50;;;32.45;;
25213;SDS011;13160;51.834;4.706;2022-12-11T10:58:28;67.10;;;37.60;;
25213;SDS011;13160;51.834;4.706;2022-12-11T11:01:04;70.22;;;37.95;;
25213;SDS011;13160;51.834;4.706;2022-12-11T11:03:35;68.85;;;36.53;;
25213;SDS011;13160;51.834;4.706;2022-12-11T11:06:20;64.22;;;35.90;;
25213;SDS011;13160;51.834;4.706;2022-12-11T11:08:51;90.05;;;48.47;;
25213;SDS011;13160;51.834;4.706;2022-12-11T11:11:24;79.78;;;40.38;;
25213;SDS011;13160;51.834;4.706;2022-12-11T11:14:06;61.88;;;35.03;;
25213;SDS011;13160;51.834;4.706;2022-12-11T11:16:45;61.22;;;34.58;;
25213;SDS011;13160;51.834;4.706;2022-12-11T11:19:17;67.35;;;34.47;;
25213;SDS011;13160;51.834;4.706;2022-12-11T11:21:52;66.30;;;35.80;;
25213;SDS011;13160;51.834;4.706;2022-12-11T11:24:31;63.58;;;35.13;;
25213;SDS011;13160;51.834;4.706;2022-12-11T11:27:10;67.78;;;34.92;;
25213;SDS011;13160;51.834;4.706;2022-12-11T11:29:55;61.42;;;34.13;;
25213;SDS011;13160;51.834;4.706;2022-12-11T11:32:29;57.30;;;32.83;;
25213;SDS011;13160;51.834;4.706;2022-12-11T11:35:14;61.15;;;33.13;;
25213;SDS011;13160;51.834;4.706;2022-12-11T11:37:54;57.83;;;33.33;;
25213;SDS011;13160;51.834;4.706;2022-12-11T11:40:29;63.17;;;34.45;;
25213;SDS011;13160;51.834;4.706;2022-12-11T11:43:04;59.80;;;34.00;;
25213;SDS011;13160;51.834;4.706;2022-12-11T11:45:43;61.55;;;33.17;;
25213;SDS011;13160;51.834;4.706;2022-12-11T11:48:26;61.15;;;34.05;;
25213;SDS011;13160;51.834;4.706;2022-12-11T11:51:04;60.33;;;33.33;;
25213;SDS011;13160;51.834;4.706;2022-12-11T11:53:45;61.30;;;33.90;;
25213;SDS011;13160;51.834;4.706;2022-12-11T11:56:21;57.50;;;33.10;;
25213;SDS011;13160;51.834;4.706;2022-12-11T11:58:56;60.75;;;33.80;;
25213;SDS011;13160;51.834;4.706;2022-12-11T12:01:32;56.88;;;31.48;;
25213;SDS011;13160;51.834;4.706;2022-12-11T12:04:02;60.50;;;32.78;;
25213;SDS011;13160;51.834;4.706;2022-12-11T12:06:38;57.28;;;31.90;;
25213;SDS011;13160;51.834;4.706;2022-12-11T12:09:35;58.78;;;31.20;;
25213;SDS011;13160;51.834;4.706;2022-12-11T12:12:15;56.10;;;33.13;;
25213;SDS011;13160;51.834;4.706;2022-12-11T12:15:09;57.67;;;32.80;;
25213;SDS011;13160;51.834;4.706;2022-12-11T12:17:51;56.95;;;31.70;;
25213;SDS011;13160;51.834;4.706;2022-12-11T12:20:27;55.90;;;31.45;;
25213;SDS011;13160;51.834;4.706;2022-12-11T12:23:21;55.22;;;32.72;;
25213;SDS011;13160;51.834;4.706;2022-12-11T12:26:07;54.30;;;30.45;;
25213;SDS011;13160;51.834;4.706;2022-12-11T12:28:43;54.00;;;30.40;;
25213;SDS011;13160;51.834;4.706;2022-12-11T12:31:36;58.13;;;31.33;;
25213;SDS011;13160;51.834;4.706;2022-12-11T12:34:26;56.90;;;31.58;;
25213;SDS011;13160;51.834;4.706;2022-12-11T12:37:09;55.97;;;31.00;;
25213;SDS011;13160;51.834;4.706;2022-12-11T12:39:46;53.53;;;31.23;;
25213;SDS011;13160;51.834;4.706;2022-12-11T12:42:27;54.78;;;32.45;;
25213;SDS011;13160;51.834;4.706;2022-12-11T12:45:06;56.20;;;31.27;;
25213;SDS011;13160;51.834;4.706;2022-12-11T12:47:45;55.10;;;31.42;;
25213;SDS011;13160;51.834;4.706;2022-12-11T12:50:19;53.10;;;29.50;;
25213;SDS011;13160;51.834;4.706;2022-12-11T12:52:51;58.58;;;32.25;;
25213;SDS011;13160;51.834;4.706;2022-12-11T12:55:24;56.70;;;32.75;;
25213;SDS011;13160;51.834;4.706;2022-12-11T12:57:57;54.25;;;32.83;;
25213;SDS011;13160;51.834;4.706;2022-12-11T13:00:29;56.75;;;32.70;;
25213;SDS011;13160;51.834;4.706;2022-12-11T13:03:01;56.75;;;33.00;;
25213;SDS011;13160;51.834;4.706;2022-12-11T13:05:42;57.10;;;33.45;;
25213;SDS011;13160;51.834;4.706;2022-12-11T13:08:23;54.42;;;31.23;;
25213;SDS011;13160;51.834;4.706;2022-12-11T13:10:58;55.83;;;32.83;;
25213;SDS011;13160;51.834;4.706;2022-12-11T13:13:44;59.08;;;32.92;;
25213;SDS011;13160;51.834;4.706;2022-12-11T13:16:24;54.40;;;33.53;;
25213;SDS011;13160;51.834;4.706;2022-12-11T13:18:54;58.83;;;33.35;;
25213;SDS011;13160;51.834;4.706;2022-12-11T13:21:24;58.08;;;35.15;;
25213;SDS011;13160;51.834;4.706;2022-12-11T13:24:12;55.80;;;34.70;;
25213;SDS011;13160;51.834;4.706;2022-12-11T13:26:43;55.97;;;33.40;;
25213;SDS011;13160;51.834;4.706;2022-12-11T13:29:29;55.72;;;32.25;;
25213;SDS011;13160;51.834;4.706;2022-12-11T13:32:02;54.85;;;30.80;;
25213;SDS011;13160;51.834;4.706;2022-12-11T13:34:50;54.22;;;31.73;;
25213;SDS011;13160;51.834;4.706;2022-12-11T13:37:25;58.58;;;35.88;;
25213;SDS011;13160;51.834;4.706;2022-12-11T13:39:58;60.63;;;35.42;;
25213;SDS011;13160;51.834;4.706;2022-12-11T13:42:28;47.67;;;29.23;;
25213;SDS011;13160;51.834;4.706;2022-12-11T13:45:18;52.67;;;30.15;;
25213;SDS011;13160;51.834;4.706;2022-12-11T13:47:51;52.67;;;30.33;;
25213;SDS011;13160;51.834;4.706;2022-12-11T13:50:23;50.00;;;30.98;;
25213;SDS011;13160;51.834;4.706;2022-12-11T13:52:57;43.47;;;26.85;;
25213;SDS011;13160;51.834;4.706;2022-12-11T13:55:28;47.08;;;29.15;;
25213;SDS011;13160;51.834;4.706;2022-12-11T13:57:59;47.17;;;28.25;;
25213;SDS011;13160;51.834;4.706;2022-12-11T14:00:30;47.38;;;27.73;;
25213;SDS011;13160;51.834;4.706;2022-12-11T14:03:00;50.05;;;28.73;;
25213;SDS011;13160;51.834;4.706;2022-12-11T14:05:32;48.67;;;27.15;;
25213;SDS011;13160;51.834;4.706;2022-12-11T14:08:02;44.60;;;27.85;;
25213;SDS011;13160;51.834;4.706;2022-12-11T14:10:36;44.88;;;27.20;;
25213;SDS011;13160;51.834;4.706;2022-12-11T14:13:10;45.17;;;27.38;;
25213;SDS011;13160;51.834;4.706;2022-12-11T14:15:47;48.00;;;28.27;;
25213;SDS011;13160;51.834;4.706;2022-12-11T14:18:17;41.17;;;25.60;;
25213;SDS011;13160;51.834;4.706;2022-12-11T14:20:53;41.35;;;26.60;;
25213;SDS011;13160;51.834;4.706;2022-12-11T14:23:24;45.45;;;26.40;;
25213;SDS011;13160;51.834;4.706;2022-12-11T14:25:55;44.60;;;25.85;;
25213;SDS011;13160;51.834;4.706;2022-12-11T14:28:27;38.70;;;24.98;;
25213;SDS011;13160;51.834;4.706;2022-12-11T14:31:03;42.20;;;25.13;;
25213;SDS011;13160;51.834;4.706;2022-12-11T14:33:34;40.42;;;25.20;;
25213;SDS011;13160;51.834;4.706;2022-12-11T14:36:07;37.92;;;24.45;;
25213;SDS011;13160;51.834;4.706;2022-12-11T14:38:37;42.75;;;24.52;;
25213;SDS011;13160;51.834;4.706;2022-12-11T14:41:12;41.33;;;26.42;;
25213;SDS011;13160;51.834;4.706;2022-12-11T14:43:46;39.45;;;26.02;;
25213;SDS011;13160;51.834;4.706;2022-12-11T14:46:21;40.10;;;24.42;;
25213;SDS011;13160;51.834;4.706;2022-12-11T14:48:57;38.58;;;25.27;;
25213;SDS011;13160;51.834;4.706;2022-12-11T14:51:29;37.40;;;24.38;;
25213;SDS011;13160;51.834;4.706;2022-12-11T14:54:02;36.72;;;24.98;;
25213;SDS011;13160;51.834;4.706;2022-12-11T14:56:32;37.75;;;23.75;;
25213;SDS011;13160;51.834;4.706;2022-12-11T14:59:01;40.45;;;25.60;;
25213;SDS011;13160;51.834;4.706;2022-12-11T15:01:36;37.75;;;24.77;;